Time;durP1;ratioP1;P1;durP2;ratioP2;P2;SDS_P1;SDS_P2;PMS_P1;PMS_P2;Temp;Humidity;BMP_temperature;BMP_pressure;BME280_temperature;BME280_humidity;BME280_pressure;Samples;Min_cycle;Max_cycle;Signal;HPM_P1;HPM_P2
2022/08/16 00:05:10;;;;;;;;;;;;;;;26.54;41.71;99408.72;20492921;28;97842;-77
2022/08/16 00:15:13;;;;;;;;;;;;;;;26.48;42.25;99409.41;20481590;28;99782;-78
2022/08/16 00:25:15;;;;;;;;;;;;;;;26.33;42.37;99414.66;20480096;28;101334;-77
2022/08/16 00:35:17;;;;;;;;;;;;;;;26.25;42.73;99425.34;20484076;28;97980;-78
2022/08/16 00:45:32;;;;;;;;;;;;;;;26.29;42.98;99416.84;20482915;28;101716;-77
2022/08/16 00:55:33;;;;;;;;;;;;;;;26.21;43.08;99420.38;20483541;28;97807;-78
2022/08/16 01:05:34;;;;;;;;;;;;;;;26.11;43.42;99421.59;20475273;28;99770;-77
2022/08/16 01:15:36;;;;;;;;;;;;;;;25.94;44.04;99439.38;20472697;28;98649;-76
2022/08/16 01:25:40;;;;;;;;;;;;;;;25.87;44.41;99441.91;20470927;28;98486;-76
2022/08/16 01:36:01;;;;;;;;;;;;;;;25.75;44.61;99433.50;20484491;28;98378;-77
2022/08/16 01:46:04;;;;;;;;;;;;;;;25.71;44.79;99443.63;20474445;27;101405;-78
2022/08/16 01:56:04;;;;;;;;;;;;;;;25.60;44.88;99438.72;20478400;28;97933;-76
2022/08/16 02:06:05;;;;;;;;;;;;;;;25.53;44.98;99435.91;20488486;27;97786;-75
2022/08/16 02:16:06;;;;;;;;;;;;;;;25.41;45.44;99439.91;20499726;28;98370;-77
2022/08/16 02:26:06;;;;;;;;;;;;;;;25.37;45.67;99428.84;20488970;28;98247;-76
2022/08/16 02:36:07;;;;;;;;;;;;;;;25.28;45.71;99424.53;20492287;28;98641;-77
2022/08/16 02:46:08;;;;;;;;;;;;;;;25.16;46.07;99426.72;20488726;28;97552;-77
2022/08/16 02:56:10;;;;;;;;;;;;;;;25.10;46.25;99433.50;20493848;28;98480;-77
2022/08/16 03:06:11;;;;;;;;;;;;;;;25.03;46.30;99429.84;20484542;28;98450;-78
2022/08/16 03:16:11;;;;;;;;;;;;;;;24.96;46.72;99436.81;20481330;28;101280;-76
2022/08/16 03:26:12;;;;;;;;;;;;;;;24.95;46.55;99443.13;20490993;28;97035;-78
2022/08/16 03:36:12;;;;;;;;;;;;;;;24.87;46.79;99462.47;20491378;28;100107;-77
2022/08/16 03:46:14;;;;;;;;;;;;;;;24.88;46.51;99469.44;20497028;28;100626;-75
2022/08/16 03:56:14;;;;;;;;;;;;;;;24.81;46.58;99484.31;20492911;28;97519;-76
2022/08/16 04:06:15;;;;;;;;;;;;;;;24.72;46.39;99483.50;20489220;28;97449;-76
2022/08/16 04:16:16;;;;;;;;;;;;;;;24.43;46.78;99494.50;20483372;28;98581;-77
2022/08/16 04:26:16;;;;;;;;;;;;;;;24.14;47.61;99490.44;20478336;28;100507;-78
2022/08/16 04:36:17;;;;;;;;;;;;;;;24.08;47.77;99505.16;20489477;28;98521;-79
2022/08/16 04:46:18;;;;;;;;;;;;;;;24.21;47.60;99494.09;20459174;28;97967;-80
2022/08/16 04:56:18;;;;;;;;;;;;;;;24.17;47.56;99494.59;20464801;28;100529;-79
2022/08/16 05:06:19;;;;;;;;;;;;;;;24.30;47.78;99487.03;20467690;28;97906;-78
2022/08/16 05:16:21;;;;;;;;;;;;;;;24.43;47.40;99508.56;20478823;28;100940;-77
2022/08/16 05:26:23;;;;;;;;;;;;;;;24.46;47.40;99508.25;20489649;28;97642;-78
2022/08/16 05:36:24;;;;;;;;;;;;;;;24.45;47.28;99521.66;20482587;28;99235;-76
2022/08/16 05:46:25;;;;;;;;;;;;;;;24.49;47.58;99522.97;20518278;28;98627;-77
2022/08/16 05:56:25;;;;;;;;;;;;;;;24.60;47.10;99519.19;20503463;27;102098;-78
2022/08/16 06:06:25;;;;;;;;;;;;;;;24.70;47.04;99511.13;20494284;28;97371;-77
2022/08/16 06:16:26;;;;;;;;;;;;;;;24.90;46.55;99504.53;20479635;27;98601;-79
2022/08/16 06:26:26;;;;;;;;;;;;;;;25.09;46.13;99524.53;20488313;27;98845;-77
2022/08/16 06:36:28;;;;;;;;;;;;;;;25.23;45.98;99522.22;20499241;28;98232;-76
2022/08/16 06:46:36;;;;;;;;;;;;;;;25.38;45.90;99512.63;20457962;28;97343;-76
2022/08/16 06:56:36;;;;;;;;;;;;;;;25.54;45.80;99511.78;20495202;27;97683;-71
2022/08/16 07:06:37;;;;;;;;;;;;;;;25.64;46.28;99506.28;20497343;28;97535;-71
2022/08/16 07:16:40;;;;;;;;;;;;;;;25.74;45.30;99511.41;20507540;28;97379;-72
2022/08/16 07:26:40;;;;;;;;;;;;;;;25.82;45.24;99522.00;20502835;28;98672;-72
2022/08/16 07:36:41;;;;;;;;;;;;;;;25.90;44.94;99523.78;20495403;28;98711;-71
2022/08/16 07:46:41;;;;;;;;;;;;;;;25.96;45.07;99540.84;20499918;28;96951;-71
2022/08/16 07:56:41;;;;;;;;;;;;;;;26.01;44.76;99531.38;20501199;28;97643;-72
2022/08/16 08:06:41;;;;;;;;;;;;;;;26.07;44.90;99537.84;20504105;28;97230;-73
2022/08/16 08:16:42;;;;;;;;;;;;;;;26.11;44.87;99533.88;20500311;28;97997;-70
2022/08/16 08:26:42;;;;;;;;;;;;;;;26.15;44.39;99537.00;20499099;28;97016;-71
2022/08/16 08:36:43;;;;;;;;;;;;;;;26.17;44.68;99543.78;20494766;28;97828;-70
2022/08/16 08:46:43;;;;;;;;;;;;;;;26.22;44.20;99543.28;20493488;28;98488;-72
2022/08/16 08:56:44;;;;;;;;;;;;;;;26.25;44.44;99536.78;20486527;28;97919;-73
2022/08/16 09:06:44;;;;;;;;;;;;;;;26.27;44.39;99535.63;20492350;28;97233;-71
2022/08/16 09:16:45;;;;;;;;;;;;;;;26.30;44.08;99518.50;20503084;28;97563;-72
2022/08/16 09:26:45;;;;;;;;;;;;;;;26.32;44.37;99519.19;20509646;28;97876;-70
2022/08/16 09:36:46;;;;;;;;;;;;;;;26.36;44.31;99507.19;20497166;28;98425;-71
2022/08/16 09:46:46;;;;;;;;;;;;;;;26.37;43.87;99507.00;20504822;28;99035;-73
2022/08/16 09:56:47;;;;;;;;;;;;;;;26.42;44.23;99509.16;20519479;28;100828;-72
2022/08/16 10:06:48;;;;;;;;;;;;;;;26.46;43.89;99501.66;20511968;28;97589;-73
2022/08/16 10:16:48;;;;;;;;;;;;;;;26.50;44.12;99497.66;20503603;28;97529;-71
2022/08/16 10:26:49;;;;;;;;;;;;;;;26.55;44.00;99500.63;20504813;28;98142;-72
2022/08/16 10:36:49;;;;;;;;;;;;;;;26.59;44.11;99493.94;20505664;28;97170;-72
2022/08/16 10:46:49;;;;;;;;;;;;;;;26.65;43.91;99492.44;20507557;28;97326;-70
2022/08/16 10:56:50;;;;;;;;;;;;;;;26.70;43.56;99479.44;20505961;28;97869;-70
2022/08/16 11:06:50;;;;;;;;;;;;;;;26.74;43.63;99459.47;20504285;28;97996;-72
2022/08/16 11:16:51;;;;;;;;;;;;;;;26.81;43.96;99464.94;20505979;28;98319;-73
2022/08/16 11:26:51;;;;;;;;;;;;;;;26.87;43.49;99466.88;20501771;28;98341;-72
2022/08/16 11:36:52;;;;;;;;;;;;;;;26.90;43.63;99473.66;20500373;28;99028;-72
2022/08/16 11:46:52;;;;;;;;;;;;;;;26.91;43.22;99486.75;20499372;28;97694;-69
2022/08/16 11:56:52;;;;;;;;;;;;;;;26.92;43.29;99514.19;20507194;28;97803;-71
2022/08/16 12:06:53;;;;;;;;;;;;;;;26.92;43.56;99512.34;20496303;28;97564;-70
2022/08/16 12:16:54;;;;;;;;;;;;;;;26.90;43.19;99495.72;20497151;28;98494;-71
2022/08/16 12:26:56;;;;;;;;;;;;;;;26.89;43.25;99501.22;20496518;28;98546;-70
2022/08/16 12:36:58;;;;;;;;;;;;;;;26.89;43.48;99486.13;20498650;28;97562;-71
2022/08/16 12:57:17;;;;;;;;;;;;;;;26.93;43.14;99481.28;20497581;28;97926;-72
2022/08/16 13:07:18;;;;;;;;;;;;;;;26.93;43.18;99476.81;20503800;28;99790;-71
2022/08/16 13:17:23;;;;;;;;;;;;;;;26.94;43.40;99467.81;20489714;27;101283;-71
2022/08/16 13:27:23;;;;;;;;;;;;;;;26.94;42.98;99454.53;20487392;28;97911;-73
2022/08/16 13:37:24;;;;;;;;;;;;;;;26.94;43.06;99449.22;20501167;27;100279;-73
2022/08/16 13:47:25;;;;;;;;;;;;;;;26.96;43.21;99451.69;20508861;28;97827;-72
2022/08/16 13:57:25;;;;;;;;;;;;;;;27.00;43.20;99445.00;20497539;28;99052;-72
2022/08/16 14:07:25;;;;;;;;;;;;;;;27.02;43.17;99428.91;20504412;28;98378;-71
2022/08/16 14:17:26;;;;;;;;;;;;;;;27.02;43.15;99435.03;20499665;28;97848;-71
2022/08/16 14:27:28;;;;;;;;;;;;;;;27.07;43.28;99435.31;20509788;28;97294;-72
2022/08/16 14:37:29;;;;;;;;;;;;;;;27.14;43.03;99448.72;20494418;28;99082;-73
2022/08/16 14:47:30;;;;;;;;;;;;;;;27.16;43.04;99455.50;20491836;28;98172;-71
2022/08/16 14:57:31;;;;;;;;;;;;;;;27.17;43.33;99456.31;20492742;28;97938;-74
2022/08/16 15:07:31;;;;;;;;;;;;;;;27.20;43.87;99476.41;20491177;28;97471;-74
2022/08/16 15:17:31;;;;;;;;;;;;;;;27.21;44.19;99480.69;20490989;28;98353;-73
2022/08/16 15:27:35;;;;;;;;;;;;;;;27.19;44.16;99490.69;20482764;28;98423;-74
2022/08/16 15:37:36;;;;;;;;;;;;;;;27.20;43.73;99493.16;20477151;28;99444;-71
2022/08/16 15:47:37;;;;;;;;;;;;;;;27.20;43.66;99503.00;20473806;28;101093;-71
2022/08/16 15:57:37;;;;;;;;;;;;;;;27.20;43.76;99510.97;20474737;28;97557;-71
2022/08/16 16:07:38;;;;;;;;;;;;;;;27.19;43.66;99502.13;20494360;27;97763;-72
2022/08/16 16:17:38;;;;;;;;;;;;;;;27.22;44.67;99492.97;20471031;28;100765;-74
2022/08/16 16:27:38;;;;;;;;;;;;;;;27.22;44.92;99511.59;20482110;28;101372;-73
2022/08/16 16:37:40;;;;;;;;;;;;;;;27.23;45.14;99507.91;20476940;28;99047;-72
2022/08/16 16:47:40;;;;;;;;;;;;;;;27.34;43.05;99499.50;20467254;28;98512;-75
2022/08/16 17:08:14;;;;;;;;;;;;;;;27.44;40.03;99534.69;20502526;28;98777;-72
2022/08/16 17:18:14;;;;;;;;;;;;;;;27.47;40.57;99539.63;20483481;28;99160;-74
2022/08/16 17:28:15;;;;;;;;;;;;;;;27.47;40.94;99552.91;20503104;28;100819;-75
2022/08/16 17:38:18;;;;;;;;;;;;;;;27.50;41.32;99553.56;20481520;28;98697;-73
2022/08/16 17:48:18;;;;;;;;;;;;;;;27.52;41.94;99568.31;20475305;28;97900;-74
2022/08/16 17:58:19;;;;;;;;;;;;;;;27.52;41.82;99586.13;20486363;28;97887;-75
2022/08/16 18:08:21;;;;;;;;;;;;;;;27.51;40.58;99603.09;20483436;28;98210;-76
2022/08/16 18:18:23;;;;;;;;;;;;;;;27.50;42.25;99612.06;20485035;28;97229;-74
2022/08/16 18:28:24;;;;;;;;;;;;;;;27.48;42.27;99601.59;20480082;27;97699;-73
2022/08/16 18:38:25;;;;;;;;;;;;;;;27.47;41.57;99595.44;20489730;28;97785;-75
2022/08/16 18:48:26;;;;;;;;;;;;;;;27.39;40.31;99597.31;20462747;28;98610;-76
2022/08/16 18:58:28;;;;;;;;;;;;;;;27.28;40.58;99596.75;20501215;28;98671;-74
2022/08/16 19:08:29;;;;;;;;;;;;;;;27.22;40.83;99605.44;20468836;28;98296;-75
2022/08/16 19:18:29;;;;;;;;;;;;;;;27.15;41.55;99602.66;20477360;27;98071;-75
2022/08/16 19:28:34;;;;;;;;;;;;;;;27.10;41.30;99601.53;20458309;28;99426;-74
2022/08/16 19:38:35;;;;;;;;;;;;;;;27.04;41.85;99616.38;20469612;28;100307;-74
2022/08/16 19:48:36;;;;;;;;;;;;;;;26.97;41.90;99624.19;20496487;28;97851;-75
2022/08/16 19:58:36;;;;;;;;;;;;;;;26.90;42.40;99625.91;20501003;27;97823;-75
2022/08/16 20:08:37;;;;;;;;;;;;;;;26.85;42.53;99628.25;20498135;28;97618;-75
2022/08/16 20:18:39;;;;;;;;;;;;;;;26.78;42.70;99627.31;20493544;28;98576;-75
2022/08/16 20:28:42;;;;;;;;;;;;;;;26.68;43.87;99633.66;20474278;28;98897;-74
2022/08/16 20:38:44;;;;;;;;;;;;;;;26.63;44.92;99643.13;20482138;28;97758;-74
2022/08/16 20:48:45;;;;;;;;;;;;;;;26.61;45.18;99645.09;20492369;28;98475;-74
2022/08/16 20:58:45;;;;;;;;;;;;;;;26.49;46.15;99648.16;20481599;28;100913;-75
2022/08/16 21:08:46;;;;;;;;;;;;;;;26.43;46.67;99651.50;20484923;28;98464;-75
2022/08/16 21:18:46;;;;;;;;;;;;;;;26.23;47.92;99661.66;20484073;28;97952;-74
2022/08/16 21:28:47;;;;;;;;;;;;;;;26.10;48.39;99669.31;20471219;28;98630;-75
2022/08/16 21:38:48;;;;;;;;;;;;;;;25.93;48.94;99665.84;20479028;28;97777;-74
2022/08/16 21:48:48;;;;;;;;;;;;;;;25.63;49.90;99673.50;20462560;28;98558;-72
2022/08/16 21:58:49;;;;;;;;;;;;;;;25.65;49.61;99674.97;20470045;28;97951;-74
2022/08/16 22:08:49;;;;;;;;;;;;;;;25.72;49.17;99689.22;20466792;28;98893;-75
2022/08/16 22:18:50;;;;;;;;;;;;;;;25.72;49.37;99688.41;20467419;28;97937;-75
2022/08/16 22:28:50;;;;;;;;;;;;;;;25.71;49.21;99694.72;20467946;28;98521;-74
2022/08/16 22:38:50;;;;;;;;;;;;;;;25.58;49.67;99697.84;20469541;28;98832;-73
2022/08/16 22:48:51;;;;;;;;;;;;;;;25.57;49.47;99698.81;20459244;28;98516;-73
2022/08/16 22:58:53;;;;;;;;;;;;;;;25.59;49.99;99690.72;20469873;28;98741;-73
2022/08/16 23:08:53;;;;;;;;;;;;;;;25.50;49.97;99687.22;20470236;28;99561;-74
2022/08/16 23:18:54;;;;;;;;;;;;;;;25.46;50.26;99678.78;20476498;28;97952;-73
2022/08/16 23:28:56;;;;;;;;;;;;;;;24.97;51.23;99683.97;20482170;28;107569;-73
2022/08/16 23:38:57;;;;;;;;;;;;;;;25.15;50.50;99686.50;20470125;28;98848;-73
2022/08/16 23:48:57;;;;;;;;;;;;;;;24.99;51.15;99695.22;20478811;28;98250;-73
2022/08/16 23:58:57;;;;;;;;;;;;;;;25.02;50.73;99703.66;20469931;28;98801;-74
